sensor_id;sensor_type;location;lat;lon;timestamp;pressure;altitude;pressure_sealevel;temperature;humidity
550;BME280;20066;48.764;9.176;2023-02-21T00:00:15;98702.81;;;9.80;49.21
550;BME280;20066;48.764;9.176;2023-02-21T00:03:03;98698.41;;;8.67;50.56
550;BME280;20066;48.764;9.176;2023-02-21T00:05:48;98700.09;;;8.98;50.00
550;BME280;20066;48.764;9.176;2023-02-21T00:08:33;98697.75;;;8.70;51.17
550;BME280;20066;48.764;9.176;2023-02-21T00:11:19;98701.81;;;9.09;50.71
550;BME280;20066;48.764;9.176;2023-02-21T00:14:05;98692.59;;;8.61;52.07
550;BME280;20066;48.764;9.176;2023-02-21T00:16:50;98695.44;;;9.17;50.38
550;BME280;20066;48.764;9.176;2023-02-21T00:19:37;98697.66;;;9.42;50.24
550;BME280;20066;48.764;9.176;2023-02-21T00:22:22;98693.41;;;8.88;50.65
550;BME280;20066;48.764;9.176;2023-02-21T00:25:08;98690.53;;;8.32;51.58
550;BME280;20066;48.764;9.176;2023-02-21T00:27:53;98688.13;;;8.91;50.85
550;BME280;20066;48.764;9.176;2023-02-21T00:30:39;98681.56;;;8.89;50.66
550;BME280;20066;48.764;9.176;2023-02-21T00:33:24;98675.59;;;8.53;51.75
550;BME280;20066;48.764;9.176;2023-02-21T00:36:16;98684.91;;;8.82;51.33
550;BME280;20066;48.764;9.176;2023-02-21T00:39:02;98688.56;;;8.71;51.23
550;BME280;20066;48.764;9.176;2023-02-21T00:41:47;98675.91;;;8.48;52.09
550;BME280;20066;48.764;9.176;2023-02-21T00:44:33;98674.31;;;9.16;50.35
550;BME280;20066;48.764;9.176;2023-02-21T00:47:18;98677.72;;;8.86;50.65
550;BME280;20066;48.764;9.176;2023-02-21T00:50:04;98675.47;;;8.46;51.59
550;BME280;20066;48.764;9.176;2023-02-21T00:52:52;98674.47;;;8.54;51.70
550;BME280;20066;48.764;9.176;2023-02-21T00:55:42;98672.09;;;9.21;50.11
550;BME280;20066;48.764;9.176;2023-02-21T00:58:28;98675.09;;;9.16;50.25
550;BME280;20066;48.764;9.176;2023-02-21T01:01:14;98668.22;;;9.19;50.09
550;BME280;20066;48.764;9.176;2023-02-21T01:04:00;98663.59;;;9.16;49.78
550;BME280;20066;48.764;9.176;2023-02-21T01:06:49;98658.56;;;8.88;50.32
550;BME280;20066;48.764;9.176;2023-02-21T01:09:36;98662.72;;;9.08;50.21
550;BME280;20066;48.764;9.176;2023-02-21T01:12:22;98662.00;;;8.88;51.00
550;BME280;20066;48.764;9.176;2023-02-21T01:15:08;98653.38;;;8.53;51.21
550;BME280;20066;48.764;9.176;2023-02-21T01:17:54;98660.19;;;8.70;51.34
550;BME280;20066;48.764;9.176;2023-02-21T01:20:38;98662.38;;;9.40;49.89
550;BME280;20066;48.764;9.176;2023-02-21T01:23:24;98666.63;;;9.71;48.95
550;BME280;20066;48.764;9.176;2023-02-21T01:26:11;98664.16;;;9.02;51.20
550;BME280;20066;48.764;9.176;2023-02-21T01:28:56;98667.97;;;9.57;49.95
550;BME280;20066;48.764;9.176;2023-02-21T01:31:42;98661.91;;;9.34;49.91
550;BME280;20066;48.764;9.176;2023-02-21T01:34:27;98656.31;;;9.16;50.66
550;BME280;20066;48.764;9.176;2023-02-21T01:37:12;98652.13;;;8.93;50.91
550;BME280;20066;48.764;9.176;2023-02-21T01:39:58;98662.22;;;9.59;49.54
550;BME280;20066;48.764;9.176;2023-02-21T01:42:44;98658.59;;;9.74;49.08
550;BME280;20066;48.764;9.176;2023-02-21T01:45:42;98660.78;;;9.65;48.54
550;BME280;20066;48.764;9.176;2023-02-21T01:48:28;98657.22;;;9.57;49.70
550;BME280;20066;48.764;9.176;2023-02-21T01:51:22;98649.22;;;9.05;50.35
550;BME280;20066;48.764;9.176;2023-02-21T01:54:08;98644.72;;;8.18;52.75
550;BME280;20066;48.764;9.176;2023-02-21T01:56:55;98644.91;;;9.23;50.53
550;BME280;20066;48.764;9.176;2023-02-21T01:59:45;98642.41;;;9.11;50.92
550;BME280;20066;48.764;9.176;2023-02-21T02:02:37;98642.81;;;9.13;50.53
550;BME280;20066;48.764;9.176;2023-02-21T02:05:26;98634.38;;;8.62;52.67
550;BME280;20066;48.764;9.176;2023-02-21T02:08:13;98627.66;;;8.98;50.71
550;BME280;20066;48.764;9.176;2023-02-21T02:11:05;98631.75;;;9.44;49.91
550;BME280;20066;48.764;9.176;2023-02-21T02:14:06;98631.81;;;9.18;50.42
550;BME280;20066;48.764;9.176;2023-02-21T02:16:44;98623.44;;;8.70;51.88
550;BME280;20066;48.764;9.176;2023-02-21T02:22:45;98627.13;;;9.41;50.27
550;BME280;20066;48.764;9.176;2023-02-21T02:25:25;98627.31;;;9.59;49.36
550;BME280;20066;48.764;9.176;2023-02-21T02:28:25;98629.69;;;9.34;49.99
550;BME280;20066;48.764;9.176;2023-02-21T02:31:19;98619.16;;;8.92;50.83
550;BME280;20066;48.764;9.176;2023-02-21T02:37:09;98615.91;;;9.06;51.05
550;BME280;20066;48.764;9.176;2023-02-21T02:39:41;98606.47;;;8.89;51.20
550;BME280;20066;48.764;9.176;2023-02-21T02:42:22;98612.09;;;9.07;50.93
550;BME280;20066;48.764;9.176;2023-02-21T02:44:59;98608.00;;;9.16;50.88
550;BME280;20066;48.764;9.176;2023-02-21T02:47:33;98609.66;;;9.58;49.52
550;BME280;20066;48.764;9.176;2023-02-21T02:50:04;98602.34;;;8.69;51.89
550;BME280;20066;48.764;9.176;2023-02-21T02:52:35;98597.63;;;9.45;49.89
550;BME280;20066;48.764;9.176;2023-02-21T02:55:20;98604.09;;;9.74;49.23
550;BME280;20066;48.764;9.176;2023-02-21T02:57:51;98600.13;;;9.60;49.31
550;BME280;20066;48.764;9.176;2023-02-21T03:00:19;98597.63;;;9.15;50.57
550;BME280;20066;48.764;9.176;2023-02-21T03:02:57;98608.09;;;9.53;49.78
550;BME280;20066;48.764;9.176;2023-02-21T03:05:41;98605.53;;;9.64;49.11
550;BME280;20066;48.764;9.176;2023-02-21T03:08:20;98609.94;;;9.79;48.74
550;BME280;20066;48.764;9.176;2023-02-21T03:10:59;98612.94;;;9.14;50.06
550;BME280;20066;48.764;9.176;2023-02-21T03:13:34;98602.97;;;9.41;48.95
550;BME280;20066;48.764;9.176;2023-02-21T03:16:14;98606.94;;;8.95;50.53
550;BME280;20066;48.764;9.176;2023-02-21T03:18:47;98608.00;;;9.46;49.76
550;BME280;20066;48.764;9.176;2023-02-21T03:21:19;98613.66;;;9.71;48.71
550;BME280;20066;48.764;9.176;2023-02-21T03:23:51;98605.16;;;9.32;50.24
550;BME280;20066;48.764;9.176;2023-02-21T03:26:21;98611.91;;;9.52;49.41
550;BME280;20066;48.764;9.176;2023-02-21T03:28:49;98604.72;;;9.60;49.22
550;BME280;20066;48.764;9.176;2023-02-21T03:31:20;98612.69;;;9.53;49.62
550;BME280;20066;48.764;9.176;2023-02-21T03:33:52;98597.72;;;9.22;50.06
550;BME280;20066;48.764;9.176;2023-02-21T03:36:20;98596.44;;;9.12;50.40
550;BME280;20066;48.764;9.176;2023-02-21T03:38:50;98593.72;;;9.39;49.68
550;BME280;20066;48.764;9.176;2023-02-21T03:41:18;98600.72;;;9.47;49.73
550;BME280;20066;48.764;9.176;2023-02-21T03:43:46;98602.28;;;8.91;50.31
550;BME280;20066;48.764;9.176;2023-02-21T03:46:14;98605.31;;;8.90;51.07
550;BME280;20066;48.764;9.176;2023-02-21T03:48:42;98605.00;;;8.46;51.87
550;BME280;20066;48.764;9.176;2023-02-21T03:51:10;98597.63;;;8.39;52.38
550;BME280;20066;48.764;9.176;2023-02-21T03:53:38;98601.97;;;8.97;50.50
550;BME280;20066;48.764;9.176;2023-02-21T03:56:08;98606.72;;;8.35;52.76
550;BME280;20066;48.764;9.176;2023-02-21T03:58:35;98610.47;;;8.53;52.41
550;BME280;20066;48.764;9.176;2023-02-21T04:01:04;98608.69;;;8.61;52.09
550;BME280;20066;48.764;9.176;2023-02-21T04:03:32;98601.50;;;8.19;52.45
550;BME280;20066;48.764;9.176;2023-02-21T04:06:00;98619.63;;;8.48;52.42
550;BME280;20066;48.764;9.176;2023-02-21T04:08:29;98611.50;;;8.45;52.75
550;BME280;20066;48.764;9.176;2023-02-21T04:10:57;98606.56;;;8.70;52.24
550;BME280;20066;48.764;9.176;2023-02-21T04:13:26;98608.94;;;8.29;53.02
550;BME280;20066;48.764;9.176;2023-02-21T04:15:54;98600.78;;;8.22;53.51
550;BME280;20066;48.764;9.176;2023-02-21T04:18:22;98606.00;;;7.73;53.57
550;BME280;20066;48.764;9.176;2023-02-21T04:20:50;98595.34;;;8.19;53.40
550;BME280;20066;48.764;9.176;2023-02-21T04:23:19;98604.78;;;7.90;54.54
550;BME280;20066;48.764;9.176;2023-02-21T04:25:47;98601.66;;;8.52;52.30
550;BME280;20066;48.764;9.176;2023-02-21T04:28:15;98605.94;;;8.57;51.78
550;BME280;20066;48.764;9.176;2023-02-21T04:30:45;98598.41;;;8.17;53.17
550;BME280;20066;48.764;9.176;2023-02-21T04:33:13;98607.56;;;8.62;52.01
550;BME280;20066;48.764;9.176;2023-02-21T04:35:41;98603.06;;;8.92;51.09
550;BME280;20066;48.764;9.176;2023-02-21T04:38:09;98618.78;;;8.02;53.45
550;BME280;20066;48.764;9.176;2023-02-21T04:40:37;98619.72;;;8.56;52.27
550;BME280;20066;48.764;9.176;2023-02-21T04:43:05;98618.19;;;8.54;52.71
550;BME280;20066;48.764;9.176;2023-02-21T04:45:33;98623.16;;;7.68;54.79
550;BME280;20066;48.764;9.176;2023-02-21T04:48:02;98621.09;;;7.81;54.47
550;BME280;20066;48.764;9.176;2023-02-21T04:50:30;98619.22;;;7.08;56.05
550;BME280;20066;48.764;9.176;2023-02-21T04:52:59;98613.13;;;7.85;55.27
550;BME280;20066;48.764;9.176;2023-02-21T04:55:26;98613.25;;;7.72;55.58
550;BME280;20066;48.764;9.176;2023-02-21T04:57:55;98610.03;;;7.83;55.07
550;BME280;20066;48.764;9.176;2023-02-21T05:00:23;98610.03;;;8.25;53.61
550;BME280;20066;48.764;9.176;2023-02-21T05:02:51;98604.03;;;8.12;53.89
550;BME280;20066;48.764;9.176;2023-02-21T05:05:20;98612.28;;;8.45;52.55
550;BME280;20066;48.764;9.176;2023-02-21T05:07:48;98604.19;;;7.77;54.72
550;BME280;20066;48.764;9.176;2023-02-21T05:10:16;98603.34;;;8.38;52.12
550;BME280;20066;48.764;9.176;2023-02-21T05:12:44;98598.16;;;8.48;52.24
550;BME280;20066;48.764;9.176;2023-02-21T05:15:13;98600.47;;;8.27;52.60
550;BME280;20066;48.764;9.176;2023-02-21T05:17:41;98598.28;;;8.33;53.17
550;BME280;20066;48.764;9.176;2023-02-21T05:20:12;98597.50;;;8.55;52.36
550;BME280;20066;48.764;9.176;2023-02-21T05:22:41;98596.50;;;8.40;51.89
550;BME280;20066;48.764;9.176;2023-02-21T05:25:14;98588.97;;;8.27;52.72
550;BME280;20066;48.764;9.176;2023-02-21T05:27:43;98584.50;;;8.11;53.21
550;BME280;20066;48.764;9.176;2023-02-21T05:30:12;98591.28;;;8.51;52.19
550;BME280;20066;48.764;9.176;2023-02-21T05:32:41;98587.44;;;8.26;52.73
550;BME280;20066;48.764;9.176;2023-02-21T05:35:09;98592.41;;;7.82;55.18
550;BME280;20066;48.764;9.176;2023-02-21T05:37:37;98596.75;;;8.09;53.79
550;BME280;20066;48.764;9.176;2023-02-21T05:40:09;98588.03;;;7.73;54.49
550;BME280;20066;48.764;9.176;2023-02-21T05:42:37;98593.88;;;8.21;53.28
550;BME280;20066;48.764;9.176;2023-02-21T05:45:06;98595.84;;;8.01;53.69
550;BME280;20066;48.764;9.176;2023-02-21T05:47:35;98592.47;;;7.85;54.10
550;BME280;20066;48.764;9.176;2023-02-21T05:50:04;98600.91;;;8.29;52.92
550;BME280;20066;48.764;9.176;2023-02-21T05:52:32;98601.03;;;8.36;52.53
550;BME280;20066;48.764;9.176;2023-02-21T05:55:01;98595.00;;;8.43;52.60
550;BME280;20066;48.764;9.176;2023-02-21T05:57:30;98601.84;;;8.63;51.90
550;BME280;20066;48.764;9.176;2023-02-21T05:59:58;98612.97;;;8.65;51.83
550;BME280;20066;48.764;9.176;2023-02-21T06:02:26;98610.09;;;7.67;54.55
550;BME280;20066;48.764;9.176;2023-02-21T06:04:54;98605.34;;;7.03;56.34
550;BME280;20066;48.764;9.176;2023-02-21T06:07:22;98605.53;;;7.29;55.53
550;BME280;20066;48.764;9.176;2023-02-21T06:09:50;98592.63;;;6.33;59.61
550;BME280;20066;48.764;9.176;2023-02-21T06:12:18;98589.69;;;7.40;57.44
550;BME280;20066;48.764;9.176;2023-02-21T06:14:48;98585.66;;;7.49;56.44
550;BME280;20066;48.764;9.176;2023-02-21T06:17:16;98586.06;;;7.90;55.57
550;BME280;20066;48.764;9.176;2023-02-21T06:19:44;98584.28;;;7.97;56.11
550;BME280;20066;48.764;9.176;2023-02-21T06:22:11;98579.66;;;7.75;55.47
550;BME280;20066;48.764;9.176;2023-02-21T06:24:40;98581.31;;;7.60;56.65
550;BME280;20066;48.764;9.176;2023-02-21T06:27:08;98576.59;;;7.54;56.64
550;BME280;20066;48.764;9.176;2023-02-21T06:29:36;98578.19;;;7.20;57.83
550;BME280;20066;48.764;9.176;2023-02-21T06:32:05;98567.91;;;7.41;58.01
550;BME280;20066;48.764;9.176;2023-02-21T06:34:34;98567.75;;;7.72;56.67
550;BME280;20066;48.764;9.176;2023-02-21T06:37:03;98579.03;;;7.82;55.94
550;BME280;20066;48.764;9.176;2023-02-21T06:39:32;98587.28;;;7.73;56.51
550;BME280;20066;48.764;9.176;2023-02-21T06:42:00;98586.81;;;8.09;54.79
550;BME280;20066;48.764;9.176;2023-02-21T06:44:29;98581.59;;;8.20;54.28
550;BME280;20066;48.764;9.176;2023-02-21T06:46:58;98599.34;;;8.05;54.46
550;BME280;20066;48.764;9.176;2023-02-21T06:49:28;98597.72;;;7.78;55.19
550;BME280;20066;48.764;9.176;2023-02-21T06:51:57;98604.78;;;7.90;54.36
550;BME280;20066;48.764;9.176;2023-02-21T06:54:25;98607.03;;;8.30;53.57
550;BME280;20066;48.764;9.176;2023-02-21T06:56:53;98603.28;;;8.34;52.86
550;BME280;20066;48.764;9.176;2023-02-21T06:59:21;98609.34;;;8.77;52.94
550;BME280;20066;48.764;9.176;2023-02-21T07:01:49;98609.91;;;8.89;51.90
550;BME280;20066;48.764;9.176;2023-02-21T07:04:17;98608.38;;;8.66;52.96
550;BME280;20066;48.764;9.176;2023-02-21T07:06:47;98616.13;;;8.94;51.93
550;BME280;20066;48.764;9.176;2023-02-21T07:09:15;98614.59;;;7.82;54.60
550;BME280;20066;48.764;9.176;2023-02-21T07:11:43;98613.38;;;7.99;54.68
550;BME280;20066;48.764;9.176;2023-02-21T07:14:12;98619.88;;;7.98;54.70
550;BME280;20066;48.764;9.176;2023-02-21T07:16:40;98608.22;;;8.55;52.96
550;BME280;20066;48.764;9.176;2023-02-21T07:19:10;98601.59;;;8.26;53.74
550;BME280;20066;48.764;9.176;2023-02-21T07:21:41;98609.88;;;8.63;52.79
550;BME280;20066;48.764;9.176;2023-02-21T07:24:10;98607.81;;;8.76;52.72
550;BME280;20066;48.764;9.176;2023-02-21T07:26:38;98601.84;;;8.86;52.20
550;BME280;20066;48.764;9.176;2023-02-21T07:29:07;98602.91;;;9.08;51.59
550;BME280;20066;48.764;9.176;2023-02-21T07:31:35;98602.91;;;8.81;52.02
550;BME280;20066;48.764;9.176;2023-02-21T07:34:03;98606.41;;;8.85;51.99
550;BME280;20066;48.764;9.176;2023-02-21T07:36:31;98604.66;;;8.47;53.75
550;BME280;20066;48.764;9.176;2023-02-21T07:38:59;98603.56;;;8.52;53.30
550;BME280;20066;48.764;9.176;2023-02-21T07:41:28;98604.88;;;8.62;53.44
550;BME280;20066;48.764;9.176;2023-02-21T07:43:59;98603.22;;;9.03;51.91
550;BME280;20066;48.764;9.176;2023-02-21T07:46:28;98600.72;;;8.41;53.97
550;BME280;20066;48.764;9.176;2023-02-21T07:48:57;98603.06;;;8.92;52.72
550;BME280;20066;48.764;9.176;2023-02-21T07:51:27;98602.47;;;9.06;52.19
550;BME280;20066;48.764;9.176;2023-02-21T07:53:56;98598.91;;;8.95;52.55
550;BME280;20066;48.764;9.176;2023-02-21T07:56:24;98595.00;;;8.92;53.10
550;BME280;20066;48.764;9.176;2023-02-21T07:58:53;98594.84;;;8.81;53.54
550;BME280;20066;48.764;9.176;2023-02-21T08:01:22;98604.34;;;8.75;53.34
550;BME280;20066;48.764;9.176;2023-02-21T08:03:51;98600.06;;;8.97;53.47
550;BME280;20066;48.764;9.176;2023-02-21T08:06:19;98602.22;;;9.14;52.64
550;BME280;20066;48.764;9.176;2023-02-21T08:08:47;98603.25;;;9.36;52.19
550;BME280;20066;48.764;9.176;2023-02-21T08:11:16;98606.34;;;9.68;51.50
550;BME280;20066;48.764;9.176;2023-02-21T08:13:44;98605.25;;;9.73;51.72
550;BME280;20066;48.764;9.176;2023-02-21T08:16:13;98609.72;;;9.98;50.87
550;BME280;20066;48.764;9.176;2023-02-21T08:18:42;98614.16;;;10.21;50.20
550;BME280;20066;48.764;9.176;2023-02-21T08:21:09;98611.09;;;10.19;50.32
550;BME280;20066;48.764;9.176;2023-02-21T08:23:38;98608.25;;;10.04;50.52
550;BME280;20066;48.764;9.176;2023-02-21T08:26:06;98605.56;;;10.04;50.61
550;BME280;20066;48.764;9.176;2023-02-21T08:28:34;98616.50;;;10.22;50.04
550;BME280;20066;48.764;9.176;2023-02-21T08:31:03;98615.03;;;10.72;49.25
550;BME280;20066;48.764;9.176;2023-02-21T08:33:33;98623.41;;;12.16;46.88
550;BME280;20066;48.764;9.176;2023-02-21T08:36:01;98621.88;;;12.29;45.01
550;BME280;20066;48.764;9.176;2023-02-21T08:38:29;98624.44;;;16.71;37.38
550;BME280;20066;48.764;9.176;2023-02-21T08:40:57;98623.41;;;19.07;32.48
550;BME280;20066;48.764;9.176;2023-02-21T08:43:25;98626.28;;;21.44;29.17
550;BME280;20066;48.764;9.176;2023-02-21T08:45:54;98631.44;;;19.97;29.94
550;BME280;20066;48.764;9.176;2023-02-21T08:48:22;98625.72;;;22.91;27.26
550;BME280;20066;48.764;9.176;2023-02-21T08:50:52;98626.00;;;24.36;24.42
550;BME280;20066;48.764;9.176;2023-02-21T08:53:20;98628.25;;;24.94;24.24
550;BME280;20066;48.764;9.176;2023-02-21T08:55:48;98634.84;;;26.38;22.58
550;BME280;20066;48.764;9.176;2023-02-21T08:58:16;98615.72;;;26.34;22.31
550;BME280;20066;48.764;9.176;2023-02-21T09:00:44;98623.00;;;25.05;23.37
550;BME280;20066;48.764;9.176;2023-02-21T09:03:12;98627.06;;;23.87;24.70
550;BME280;20066;48.764;9.176;2023-02-21T09:05:40;98614.47;;;22.40;25.51
550;BME280;20066;48.764;9.176;2023-02-21T09:08:10;98615.53;;;22.34;26.44
550;BME280;20066;48.764;9.176;2023-02-21T09:10:38;98617.13;;;20.06;29.88
550;BME280;20066;48.764;9.176;2023-02-21T09:13:10;98611.97;;;20.33;28.42
550;BME280;20066;48.764;9.176;2023-02-21T09:15:38;98619.59;;;21.11;28.44
550;BME280;20066;48.764;9.176;2023-02-21T09:18:06;98617.88;;;20.19;29.26
550;BME280;20066;48.764;9.176;2023-02-21T09:20:35;98621.97;;;21.22;27.91
550;BME280;20066;48.764;9.176;2023-02-21T09:23:07;98617.66;;;19.47;30.10
550;BME280;20066;48.764;9.176;2023-02-21T09:25:36;98612.81;;;17.76;33.32
550;BME280;20066;48.764;9.176;2023-02-21T09:28:04;98616.41;;;19.06;31.62
550;BME280;20066;48.764;9.176;2023-02-21T09:30:33;98606.69;;;17.13;33.85
550;BME280;20066;48.764;9.176;2023-02-21T09:33:02;98613.19;;;17.39;33.32
550;BME280;20066;48.764;9.176;2023-02-21T09:35:30;98612.72;;;22.15;27.74
550;BME280;20066;48.764;9.176;2023-02-21T09:38:00;98617.88;;;20.70;27.99
550;BME280;20066;48.764;9.176;2023-02-21T09:40:40;98607.31;;;16.97;34.35
550;BME280;20066;48.764;9.176;2023-02-21T09:43:16;98597.91;;;17.45;32.63
550;BME280;20066;48.764;9.176;2023-02-21T09:45:46;98601.50;;;19.94;30.95
550;BME280;20066;48.764;9.176;2023-02-21T09:48:18;98602.03;;;18.25;32.64
550;BME280;20066;48.764;9.176;2023-02-21T09:50:51;98600.72;;;17.97;32.63
550;BME280;20066;48.764;9.176;2023-02-21T09:53:22;98600.66;;;16.55;34.62
550;BME280;20066;48.764;9.176;2023-02-21T09:55:57;98589.31;;;17.26;34.45
550;BME280;20066;48.764;9.176;2023-02-21T09:58:26;98598.13;;;21.22;29.33
550;BME280;20066;48.764;9.176;2023-02-21T10:00:57;98592.16;;;18.15;32.84
550;BME280;20066;48.764;9.176;2023-02-21T10:03:41;98598.84;;;16.22;36.02
550;BME280;20066;48.764;9.176;2023-02-21T10:06:19;98585.69;;;17.53;33.64
550;BME280;20066;48.764;9.176;2023-02-21T10:08:53;98594.69;;;17.86;33.44
550;BME280;20066;48.764;9.176;2023-02-21T10:11:32;98588.81;;;20.38;29.62
550;BME280;20066;48.764;9.176;2023-02-21T10:14:14;98584.06;;;19.21;31.20
550;BME280;20066;48.764;9.176;2023-02-21T10:16:49;98574.66;;;18.32;33.95
550;BME280;20066;48.764;9.176;2023-02-21T10:19:22;98584.56;;;19.32;31.27
550;BME280;20066;48.764;9.176;2023-02-21T10:21:56;98580.16;;;17.56;33.22
550;BME280;20066;48.764;9.176;2023-02-21T10:24:27;98573.84;;;16.57;35.56
550;BME280;20066;48.764;9.176;2023-02-21T10:27:01;98579.22;;;18.35;33.13
550;BME280;20066;48.764;9.176;2023-02-21T10:29:38;98576.84;;;17.29;34.53
550;BME280;20066;48.764;9.176;2023-02-21T10:32:09;98576.50;;;17.07;35.08
550;BME280;20066;48.764;9.176;2023-02-21T10:34:39;98571.56;;;17.22;35.28
550;BME280;20066;48.764;9.176;2023-02-21T10:37:23;98578.75;;;19.30;32.58
550;BME280;20066;48.764;9.176;2023-02-21T10:39:55;98570.00;;;20.53;30.46
550;BME280;20066;48.764;9.176;2023-02-21T10:42:33;98573.09;;;20.29;30.79
550;BME280;20066;48.764;9.176;2023-02-21T10:45:03;98577.53;;;21.30;28.54
550;BME280;20066;48.764;9.176;2023-02-21T10:47:44;98577.03;;;22.06;28.05
550;BME280;20066;48.764;9.176;2023-02-21T10:50:36;98572.00;;;19.76;30.66
550;BME280;20066;48.764;9.176;2023-02-21T10:53:05;98569.97;;;19.64;30.98
550;BME280;20066;48.764;9.176;2023-02-21T10:55:34;98565.22;;;18.81;32.29
550;BME280;20066;48.764;9.176;2023-02-21T10:58:08;98564.78;;;18.38;33.04
550;BME280;20066;48.764;9.176;2023-02-21T11:00:38;98558.31;;;20.52;30.41
550;BME280;20066;48.764;9.176;2023-02-21T11:03:20;98550.84;;;21.22;28.85
550;BME280;20066;48.764;9.176;2023-02-21T11:05:50;98548.50;;;22.44;26.80
550;BME280;20066;48.764;9.176;2023-02-21T11:08:34;98542.50;;;19.96;30.80
550;BME280;20066;48.764;9.176;2023-02-21T11:11:02;98541.53;;;20.97;29.01
550;BME280;20066;48.764;9.176;2023-02-21T11:13:32;98544.38;;;21.90;27.76
550;BME280;20066;48.764;9.176;2023-02-21T11:16:10;98537.81;;;18.72;31.84
550;BME280;20066;48.764;9.176;2023-02-21T11:18:38;98540.31;;;20.76;30.08
550;BME280;20066;48.764;9.176;2023-02-21T11:21:11;98532.16;;;23.68;26.13
550;BME280;20066;48.764;9.176;2023-02-21T11:23:44;98537.28;;;23.24;26.59
550;BME280;20066;48.764;9.176;2023-02-21T11:26:15;98525.66;;;21.48;28.34
550;BME280;20066;48.764;9.176;2023-02-21T11:28:45;98526.75;;;20.13;31.24
550;BME280;20066;48.764;9.176;2023-02-21T11:31:17;98519.97;;;21.43;28.73
550;BME280;20066;48.764;9.176;2023-02-21T11:33:51;98513.53;;;20.71;29.83
550;BME280;20066;48.764;9.176;2023-02-21T11:36:27;98502.34;;;21.44;29.30
550;BME280;20066;48.764;9.176;2023-02-21T11:39:04;98504.66;;;25.69;24.43
550;BME280;20066;48.764;9.176;2023-02-21T11:41:38;98501.66;;;27.04;22.47
550;BME280;20066;48.764;9.176;2023-02-21T11:44:25;98500.81;;;24.07;25.44
550;BME280;20066;48.764;9.176;2023-02-21T11:47:00;98485.69;;;20.64;29.55
550;BME280;20066;48.764;9.176;2023-02-21T11:49:38;98475.22;;;19.52;31.88
550;BME280;20066;48.764;9.176;2023-02-21T11:52:15;98482.00;;;18.48;33.28
550;BME280;20066;48.764;9.176;2023-02-21T11:54:45;98473.28;;;18.24;35.04
550;BME280;20066;48.764;9.176;2023-02-21T11:57:19;98464.69;;;17.41;35.46
550;BME280;20066;48.764;9.176;2023-02-21T11:59:55;98455.50;;;17.35;36.52
550;BME280;20066;48.764;9.176;2023-02-21T12:02:48;98450.22;;;17.28;36.11
550;BME280;20066;48.764;9.176;2023-02-21T12:05:31;98452.56;;;16.90;36.19
550;BME280;20066;48.764;9.176;2023-02-21T12:08:17;98440.16;;;16.89;36.86
550;BME280;20066;48.764;9.176;2023-02-21T12:10:56;98441.16;;;17.34;35.48
550;BME280;20066;48.764;9.176;2023-02-21T12:13:35;98431.34;;;16.22;37.34
550;BME280;20066;48.764;9.176;2023-02-21T12:16:14;98425.25;;;16.57;37.08
550;BME280;20066;48.764;9.176;2023-02-21T12:18:57;98424.59;;;17.09;36.07
550;BME280;20066;48.764;9.176;2023-02-21T12:24:45;98413.09;;;17.02;35.85
550;BME280;20066;48.764;9.176;2023-02-21T12:27:19;98404.69;;;16.76;36.11
550;BME280;20066;48.764;9.176;2023-02-21T12:30:03;98406.72;;;16.72;36.72
550;BME280;20066;48.764;9.176;2023-02-21T12:32:52;98407.53;;;16.89;35.98
550;BME280;20066;48.764;9.176;2023-02-21T12:38:33;98390.50;;;16.69;36.47
550;BME280;20066;48.764;9.176;2023-02-21T12:41:13;98385.53;;;16.83;36.85
550;BME280;20066;48.764;9.176;2023-02-21T12:43:52;98388.38;;;17.16;36.30
550;BME280;20066;48.764;9.176;2023-02-21T12:46:27;98378.00;;;16.91;36.02
550;BME280;20066;48.764;9.176;2023-02-21T12:49:03;98376.13;;;17.72;34.76
550;BME280;20066;48.764;9.176;2023-02-21T12:51:35;98368.88;;;17.17;36.02
550;BME280;20066;48.764;9.176;2023-02-21T12:54:10;98361.53;;;17.50;35.36
550;BME280;20066;48.764;9.176;2023-02-21T12:56:46;98353.88;;;17.78;34.55
550;BME280;20066;48.764;9.176;2023-02-21T12:59:20;98345.03;;;18.47;33.19
550;BME280;20066;48.764;9.176;2023-02-21T13:01:55;98347.09;;;18.43;33.78
550;BME280;20066;48.764;9.176;2023-02-21T13:04:43;98341.66;;;17.37;35.11
550;BME280;20066;48.764;9.176;2023-02-21T13:07:15;98330.38;;;18.00;34.12
550;BME280;20066;48.764;9.176;2023-02-21T13:09:55;98331.91;;;18.30;33.34
550;BME280;20066;48.764;9.176;2023-02-21T13:12:30;98318.19;;;18.04;34.09
550;BME280;20066;48.764;9.176;2023-02-21T13:15:11;98319.50;;;18.41;33.96
550;BME280;20066;48.764;9.176;2023-02-21T13:17:41;98320.81;;;18.91;32.59
550;BME280;20066;48.764;9.176;2023-02-21T13:20:15;98312.19;;;18.93;31.94
550;BME280;20066;48.764;9.176;2023-02-21T13:26:39;98304.03;;;18.93;31.47
550;BME280;20066;48.764;9.176;2023-02-21T13:29:16;98293.50;;;18.66;32.10
550;BME280;20066;48.764;9.176;2023-02-21T13:31:46;98301.16;;;18.96;31.89
550;BME280;20066;48.764;9.176;2023-02-21T13:34:18;98288.06;;;19.29;31.81
550;BME280;20066;48.764;9.176;2023-02-21T13:36:51;98287.06;;;19.36;30.93
550;BME280;20066;48.764;9.176;2023-02-21T13:39:21;98277.28;;;18.08;32.65
550;BME280;20066;48.764;9.176;2023-02-21T13:42:04;98287.13;;;18.85;32.08
550;BME280;20066;48.764;9.176;2023-02-21T13:44:36;98274.22;;;19.23;31.83
550;BME280;20066;48.764;9.176;2023-02-21T13:47:13;98268.66;;;19.61;31.00
550;BME280;20066;48.764;9.176;2023-02-21T13:49:48;98256.66;;;19.24;31.70
550;BME280;20066;48.764;9.176;2023-02-21T13:55:25;98257.38;;;19.38;31.19
550;BME280;20066;48.764;9.176;2023-02-21T13:58:29;98252.38;;;19.36;30.65
550;BME280;20066;48.764;9.176;2023-02-21T14:01:18;98251.56;;;20.05;29.51
550;BME280;20066;48.764;9.176;2023-02-21T14:03:48;98248.66;;;19.99;30.02
550;BME280;20066;48.764;9.176;2023-02-21T14:06:32;98233.56;;;19.85;29.96
550;BME280;20066;48.764;9.176;2023-02-21T14:09:05;98240.78;;;18.85;31.72
550;BME280;20066;48.764;9.176;2023-02-21T14:11:43;98232.50;;;19.36;32.10
550;BME280;20066;48.764;9.176;2023-02-21T14:14:21;98228.00;;;18.44;33.02
550;BME280;20066;48.764;9.176;2023-02-21T14:16:52;98223.56;;;19.57;31.18
550;BME280;20066;48.764;9.176;2023-02-21T14:19:30;98231.63;;;19.39;31.55
550;BME280;20066;48.764;9.176;2023-02-21T14:22:03;98222.06;;;19.21;31.31
550;BME280;20066;48.764;9.176;2023-02-21T14:24:40;98222.66;;;18.91;31.30